Time;durP1;ratioP1;P1;durP2;ratioP2;P2;SDS_P1;SDS_P2;PMS_P1;PMS_P2;Temp;Humidity;BMP_temperature;BMP_pressure;BME280_temperature;BME280_humidity;BME280_pressure;Samples;Min_cycle;Max_cycle;Signal;HPM_P1;HPM_P2
2021/12/05 00:23:18;;;;;;;5.88;1.92;;;;;;;4.30;82.13;99248.97;4805860;29;20342;-67
2021/12/05 00:26:21;;;;;;;7.18;2.33;;;;;;;4.42;81.85;99253.56;4805745;29;20057;-68
2021/12/05 00:29:50;;;;;;;13.32;2.05;;;;;;;4.17;83.20;99253.88;4805789;29;20080;-67
2021/12/05 00:33:12;;;;;;;9.00;1.50;;;;;;;4.15;84.28;99257.47;4794680;29;20123;-68
2021/12/05 00:49:28;;;;;;;8.50;1.58;;;;;;;4.12;84.13;99265.38;4805472;29;20413;-67
2021/12/05 00:53:05;;;;;;;8.20;1.52;;;;;;;3.90;85.17;99261.16;4794150;29;20062;-68
2021/12/05 01:06:29;;;;;;;8.13;1.75;;;;;;;4.24;84.53;99254.44;4805262;29;20061;-68
2021/12/05 01:09:37;;;;;;;9.80;1.80;;;;;;;4.18;84.35;99265.09;4793796;29;20146;-68
2021/12/05 01:15:47;;;;;;;6.03;1.40;;;;;;;3.86;86.15;99257.06;4785104;29;20054;-68
2021/12/05 01:18:51;;;;;;;5.88;1.90;;;;;;;3.91;86.17;99265.44;4785747;29;20085;-68
2021/12/05 01:22:00;;;;;;;5.90;1.75;;;;;;;3.87;85.10;99265.66;4785388;29;20508;-68
2021/12/05 01:25:53;;;;;;;6.60;1.40;;;;;;;4.01;85.30;99259.84;4785066;29;20058;-68
2021/12/05 01:32:02;;;;;;;6.28;1.50;;;;;;;4.13;85.19;99262.69;4785611;29;20062;-67
2021/12/05 01:35:44;;;;;;;8.13;1.63;;;;;;;4.29;84.16;99262.84;4786044;29;20476;-68
2021/12/05 01:49:09;;;;;;;12.80;2.70;;;;;;;3.91;82.41;99252.50;4768861;30;20430;-67
2021/12/05 02:08:53;;;;;;;12.38;2.30;;;;;;;3.95;83.71;99242.84;4768601;30;20517;-67
2021/12/05 02:15:39;;;;;;;9.07;2.25;;;;;;;3.90;83.36;99244.81;4750164;30;20003;-67
2021/12/05 02:42:32;;;;;;;13.50;2.30;;;;;;;3.71;82.07;99226.72;4763259;30;20051;-67
2021/12/05 02:45:35;;;;;;;12.20;2.38;;;;;;;3.67;82.88;99230.31;4767389;30;20564;-67
2021/12/05 02:48:40;;;;;;;11.50;1.52;;;;;;;3.64;83.30;99218.38;4771576;30;20047;-67
2021/12/05 02:51:54;;;;;;;12.95;1.98;;;;;;;3.75;82.93;99230.00;4770812;30;20093;-67
2021/12/05 02:55:27;;;;;;;8.75;2.05;;;;;;;3.64;83.22;99228.72;4771762;30;20059;-67
2021/12/05 03:01:46;;;;;;;14.25;1.67;;;;;;;3.44;84.13;99234.75;4770670;30;20054;-67
2021/12/05 03:04:51;;;;;;;13.05;1.90;;;;;;;3.22;84.74;99228.84;4770566;30;20112;-68
2021/12/05 03:08:00;;;;;;;12.20;3.05;;;;;;;2.95;85.28;99239.44;4770799;30;20058;-67
2021/12/05 03:11:07;;;;;;;10.30;2.00;;;;;;;3.18;84.72;99233.31;4770069;30;20143;-67
2021/12/05 03:14:10;;;;;;;12.40;2.30;;;;;;;3.26;84.02;99239.00;4771153;30;20592;-67
2021/12/05 03:17:14;;;;;;;9.63;2.45;;;;;;;3.27;83.42;99234.66;4770508;30;20054;-67
2021/12/05 03:20:18;;;;;;;9.10;1.73;;;;;;;3.25;83.69;99231.28;4770198;30;20075;-68
2021/12/05 03:23:22;;;;;;;10.40;1.58;;;;;;;3.22;83.00;99232.28;4770353;30;20123;-67
2021/12/05 03:26:31;;;;;;;9.30;1.88;;;;;;;3.23;83.00;99235.72;4770155;30;20142;-67
2021/12/05 03:29:35;;;;;;;7.88;1.48;;;;;;;3.16;82.84;99234.25;4770226;30;20087;-67
2021/12/05 03:32:40;;;;;;;9.48;2.58;;;;;;;3.09;82.99;99230.28;4769990;30;20054;-67
2021/12/05 03:35:44;;;;;;;10.18;1.80;;;;;;;3.02;83.32;99225.38;4770858;30;20086;-67
2021/12/05 03:38:47;;;;;;;8.88;1.67;;;;;;;2.89;83.51;99219.03;4770807;30;20054;-67
2021/12/05 03:41:55;;;;;;;10.90;1.80;;;;;;;2.85;84.05;99225.25;4769831;30;20111;-67
2021/12/05 03:44:58;;;;;;;7.50;1.52;;;;;;;3.06;83.29;99220.91;4769537;30;20110;-67
2021/12/05 03:48:06;;;;;;;8.63;1.63;;;;;;;3.18;83.07;99214.38;4769845;30;20054;-67
2021/12/05 03:51:13;;;;;;;10.88;2.13;;;;;;;3.06;81.49;99215.75;4769929;30;20127;-67
2021/12/05 03:54:18;;;;;;;5.90;1.23;;;;;;;3.00;81.67;99218.59;4769975;30;20398;-68
2021/12/05 03:57:22;;;;;;;13.98;1.95;;;;;;;3.25;81.22;99227.00;4769733;30;20131;-67
2021/12/05 04:00:31;;;;;;;10.38;1.77;;;;;;;3.45;81.14;99226.13;4759385;30;20546;-67
2021/12/05 04:03:34;;;;;;;6.72;1.35;;;;;;;3.39;81.04;99223.81;4769593;30;20151;-68
2021/12/05 04:06:38;;;;;;;4.03;1.40;;;;;;;3.50;81.30;99224.16;4760738;30;20144;-68
2021/12/05 04:09:43;;;;;;;9.00;1.90;;;;;;;2.94;83.23;99235.19;4769269;30;20533;-67
2021/12/05 04:12:47;;;;;;;8.15;1.30;;;;;;;3.19;82.30;99231.56;4779535;30;20109;-67
2021/12/05 04:15:54;;;;;;;6.47;1.20;;;;;;;3.24;82.37;99229.63;4768477;30;20063;-67
2021/12/05 04:18:58;;;;;;;6.53;1.50;;;;;;;3.28;82.35;99226.00;4779584;30;20430;-68
2021/12/05 04:22:05;;;;;;;9.77;2.13;;;;;;;3.36;82.10;99234.28;4779442;30;20054;-67
2021/12/05 04:25:12;;;;;;;14.48;2.83;;;;;;;3.32;82.61;99226.69;4761243;30;20051;-67
2021/12/05 04:28:16;;;;;;;13.43;2.58;;;;;;;3.26;82.82;99230.41;4761364;30;20422;-67
2021/12/05 04:31:21;;;;;;;8.07;2.10;;;;;;;3.32;82.86;99224.13;4761193;30;20051;-67
2021/12/05 04:34:25;;;;;;;8.88;1.70;;;;;;;3.44;82.51;99223.59;4750786;30;20051;-68
2021/12/05 04:37:28;;;;;;;11.75;2.03;;;;;;;3.52;82.50;99225.84;4750854;30;20423;-68
2021/12/05 04:40:33;;;;;;;7.32;1.40;;;;;;;3.39;82.41;99226.38;4751053;30;20062;-68
2021/12/05 04:43:38;;;;;;;9.30;1.63;;;;;;;3.42;82.51;99222.84;4751004;30;20051;-68
2021/12/05 04:46:43;;;;;;;11.35;1.35;;;;;;;3.52;82.30;99229.28;4750404;30;20059;-67
2021/12/05 04:49:47;;;;;;;7.50;1.70;;;;;;;3.45;82.48;99223.53;4761085;30;20108;-68
2021/12/05 04:52:51;;;;;;;13.10;2.63;;;;;;;3.45;82.80;99233.03;4760225;30;20178;-68
2021/12/05 04:55:57;;;;;;;10.00;2.00;;;;;;;3.54;82.95;99222.28;4751373;30;20132;-67
2021/12/05 05:02:10;;;;;;;16.27;1.45;;;;;;;3.57;82.84;99222.13;5157837;24;20062;-68
2021/12/05 05:05:14;;;;;;;10.52;1.63;;;;;;;3.64;82.41;99222.72;4841355;29;20084;-67
2021/12/05 05:08:18;;;;;;;9.45;1.77;;;;;;;3.62;82.44;99224.53;4839404;29;20057;-67
2021/12/05 05:11:25;;;;;;;8.68;1.80;;;;;;;3.54;82.87;99232.59;4841399;29;20045;-68
2021/12/05 05:14:28;;;;;;;8.48;1.48;;;;;;;3.37;83.44;99238.53;4841334;29;20110;-67
2021/12/05 05:17:32;;;;;;;8.48;1.70;;;;;;;3.45;83.33;99238.22;4847390;29;20125;-67
2021/12/05 05:20:41;;;;;;;6.30;1.25;;;;;;;3.47;83.26;99234.63;4823315;29;20125;-68
2021/12/05 05:27:43;;;;;;;8.07;1.38;;;;;;;3.42;82.82;99228.84;4823204;29;20054;-68
2021/12/05 05:39:00;;;;;;;8.63;1.95;;;;;;;3.28;84.19;99231.16;4822193;29;20581;-68
2021/12/05 05:47:40;;;;;;;10.30;2.58;;;;;;;3.25;83.52;99247.66;4820838;29;20057;-67
2021/12/05 05:50:45;;;;;;;14.40;3.42;;;;;;;3.22;84.20;99246.91;4827609;29;20088;-67
2021/12/05 05:53:49;;;;;;;8.63;3.10;;;;;;;3.23;83.94;99254.63;4838858;29;20420;-68
2021/12/05 05:56:58;;;;;;;7.55;2.10;;;;;;;3.14;84.47;99249.00;4838807;29;20053;-68
2021/12/05 06:00:12;;;;;;;8.98;3.42;;;;;;;2.94;84.82;99247.25;4847234;29;20106;-67
2021/12/05 06:06:22;;;;;;;4.38;1.33;;;;;;;2.92;85.14;99255.06;4826195;29;20049;-67
2021/12/05 06:09:26;;;;;;;10.13;2.03;;;;;;;3.01;84.75;99251.25;4825986;29;20573;-68
2021/12/05 06:12:29;;;;;;;8.98;2.08;;;;;;;3.08;84.03;99244.09;4825824;29;20065;-67
2021/12/05 06:15:32;;;;;;;10.57;2.78;;;;;;;3.11;84.23;99243.97;4824284;29;20061;-67
2021/12/05 06:18:36;;;;;;;5.50;1.90;;;;;;;2.92;84.52;99244.72;4822705;29;20129;-67
2021/12/05 06:21:40;;;;;;;11.88;1.90;;;;;;;2.93;84.22;99246.41;4814576;29;20053;-68
2021/12/05 06:24:43;;;;;;;7.45;1.45;;;;;;;2.92;84.27;99249.91;4825779;29;20053;-67
2021/12/05 06:27:48;;;;;;;10.57;1.98;;;;;;;2.90;84.09;99241.38;4825544;29;20191;-67
2021/12/05 06:47:22;;;;;;;5.93;1.90;;;;;;;2.56;84.46;99247.91;4825281;29;20110;-67
2021/12/05 06:50:26;;;;;;;7.45;2.75;;;;;;;2.60;84.29;99268.44;4825323;29;20054;-67
2021/12/05 06:53:29;;;;;;;13.48;4.75;;;;;;;2.43;83.44;99261.38;4824911;29;20126;-68
2021/12/05 06:56:33;;;;;;;14.27;7.85;;;;;;;2.42;83.86;99273.41;4825500;29;20053;-67
2021/12/05 06:59:39;;;;;;;15.23;8.35;;;;;;;2.40;83.44;99275.22;4824886;29;20107;-67
2021/12/05 07:02:42;;;;;;;11.35;5.90;;;;;;;2.34;82.93;99303.84;4825058;29;20455;-67
2021/12/05 07:09:15;;;;;;;8.77;3.35;;;;;;;2.23;83.22;99308.53;4825200;29;20389;-67
2021/12/05 07:13:13;;;;;;;7.70;2.53;;;;;;;2.15;83.30;99313.16;4824807;29;20131;-67
2021/12/05 07:17:07;;;;;;;7.78;1.30;;;;;;;2.02;83.68;99318.75;4824130;29;20058;-67
2021/12/05 07:26:16;;;;;;;10.85;3.60;;;;;;;2.12;84.14;99314.09;4801506;29;20065;-66
2021/12/05 07:42:48;;;;;;;34.75;19.95;;;;;;;2.53;83.92;99335.75;4801894;29;20456;-66
2021/12/05 07:45:59;;;;;;;;;;;;;;;2.62;83.94;99344.91;4802910;29;20421;-65
2021/12/05 07:49:03;;;;;;;34.05;22.95;;;;;;;2.77;83.44;99351.19;4803589;29;20370;-65
2021/12/05 07:52:07;;;;;;;35.05;19.60;;;;;;;2.86;83.03;99343.09;4804911;29;20284;-65
2021/12/05 07:55:26;;;;;;;57.65;33.13;;;;;;;2.42;84.33;99348.22;4804992;29;20057;-65
2021/12/05 08:16:08;;;;;;;16.48;8.32;;;;;;;2.92;83.86;99365.25;4791487;29;20057;-67
2021/12/05 08:19:11;;;;;;;39.90;23.50;;;;;;;2.96;83.52;99366.78;4792989;29;20077;-67
2021/12/05 08:22:15;;;;;;;59.97;33.78;;;;;;;2.94;84.29;99366.03;4799771;29;20054;-67
2021/12/05 08:25:22;;;;;;;32.03;18.83;;;;;;;2.97;83.69;99371.91;4794852;29;20120;-68
2021/12/05 08:34:59;;;;;;;20.17;10.40;;;;;;;3.19;83.31;99374.50;4843913;24;20539;-65
2021/12/05 08:41:40;;;;;;;11.45;4.30;;;;;;;3.34;83.06;99385.94;4810214;29;20057;-65
2021/12/05 10:17:45;;;;;;;10.15;3.60;;;;;;;5.01;78.31;99388.03;4859106;29;20051;-67
2021/12/05 10:38:24;;;;;;;5.13;1.45;;;;;;;5.25;75.47;99389.47;4821976;29;20065;-68
2021/12/05 10:44:45;;;;;;;3.28;1.10;;;;;;;4.98;73.46;99389.06;4822281;29;20431;-68
2021/12/05 10:47:51;;;;;;;3.28;0.63;;;;;;;5.00;73.25;99379.44;4828096;29;20049;-68
2021/12/05 10:51:02;;;;;;;3.30;1.08;;;;;;;5.12;74.34;99388.38;4675471;29;10000883;-69
2021/12/05 10:54:17;;;;;;;3.90;1.77;;;;;;;5.20;74.72;99382.81;4821147;29;20393;-68
2021/12/05 10:57:28;;;;;;;6.35;1.30;;;;;;;5.20;72.59;99385.41;4837806;29;20088;-68
2021/12/05 11:00:31;;;;;;;4.75;1.05;;;;;;;5.29;72.36;99384.97;4838470;29;20130;-69
2021/12/05 11:03:35;;;;;;;3.22;0.93;;;;;;;5.27;72.53;99387.66;4808258;29;20461;-69
2021/12/05 11:06:54;;;;;;;7.78;2.10;;;;;;;5.32;72.75;99396.03;4819224;29;20730;-68
2021/12/05 11:09:59;;;;;;;4.05;1.13;;;;;;;5.45;72.09;99385.91;4819810;29;20100;-68
2021/12/05 11:13:28;;;;;;;5.10;1.83;;;;;;;5.44;71.45;99383.38;4829662;29;20048;-68
2021/12/05 11:16:49;;;;;;;5.65;1.85;;;;;;;5.69;71.75;99383.00;4834546;29;20127;-66
2021/12/05 11:20:11;;;;;;;3.35;1.10;;;;;;;5.66;71.80;99384.00;4837888;29;20416;-66
2021/12/05 11:23:18;;;;;;;5.65;1.55;;;;;;;5.54;71.39;99394.97;4838400;29;20049;-66
2021/12/05 11:26:22;;;;;;;4.10;1.10;;;;;;;5.51;72.21;99389.94;4837677;29;20074;-66
2021/12/05 11:30:00;;;;;;;5.60;0.93;;;;;;;5.33;71.70;99382.19;4838877;29;20052;-66
2021/12/05 11:33:17;;;;;;;2.97;0.63;;;;;;;5.39;71.70;99386.19;4839010;29;20106;-66
2021/12/05 11:36:30;;;;;;;2.60;0.80;;;;;;;5.49;71.75;99384.00;4843014;29;20092;-66
2021/12/05 11:39:33;;;;;;;4.95;1.10;;;;;;;5.51;71.37;99385.59;4841921;29;20645;-66
2021/12/05 11:42:49;;;;;;;;;;;;;;;5.69;70.46;99381.25;4842762;29;20090;-66
2021/12/05 11:46:04;;;;;;;2.97;0.75;;;;;;;5.81;69.95;99378.03;4842728;29;19923;-66
2021/12/05 11:49:22;;;;;;;2.92;1.10;;;;;;;5.80;69.98;99378.94;4840497;29;20511;-66
2021/12/05 11:55:35;;;;;;;9.40;5.10;;;;;;;5.71;69.81;99371.66;5213218;24;20157;-64
2021/12/05 11:58:39;;;;;;;6.57;1.77;;;;;;;5.66;69.32;99372.78;4827955;29;20080;-64
2021/12/05 12:02:03;;;;;;;5.05;2.20;;;;;;;5.54;70.20;99369.06;4835022;29;20137;-64
2021/12/05 12:05:27;;;;;;;5.53;2.30;;;;;;;5.68;70.28;99370.94;4824273;29;20061;-66
2021/12/05 12:08:30;;;;;;;3.45;1.23;;;;;;;5.69;70.61;99383.84;4819469;29;20057;-66
2021/12/05 12:11:34;;;;;;;3.20;0.85;;;;;;;5.38;71.23;99375.91;4819444;29;20061;-66
2021/12/05 12:14:38;;;;;;;4.72;2.47;;;;;;;5.32;72.85;99390.84;4820299;29;20045;-65
2021/12/05 12:17:43;;;;;;;6.78;2.92;;;;;;;5.44;73.97;99393.75;4807651;29;20408;-66
2021/12/05 12:20:47;;;;;;;3.58;2.38;;;;;;;5.39;73.25;99390.53;4802382;29;20111;-66
2021/12/05 12:24:01;;;;;;;5.07;2.22;;;;;;;5.20;74.25;99386.28;4791009;29;20298;-66
2021/12/05 12:27:04;;;;;;;2.75;1.52;;;;;;;5.53;74.51;99395.91;4802064;29;20050;-66
2021/12/05 12:30:09;;;;;;;;;;;;;;;5.63;73.75;99394.53;4804267;29;20127;-66
2021/12/05 12:33:26;;;;;;;4.93;1.67;;;;;;;5.51;73.61;99392.53;4820077;29;19931;-66
2021/12/05 12:36:37;;;;;;;4.60;1.25;;;;;;;5.48;73.82;99388.34;4820324;29;20146;-66
2021/12/05 12:39:45;;;;;;;5.18;1.50;;;;;;;5.73;74.42;99390.53;4821049;29;20110;-65
2021/12/05 12:42:48;;;;;;;5.72;2.35;;;;;;;6.10;72.12;99383.53;4820887;29;20625;-69
2021/12/05 12:45:51;;;;;;;;;;;;;;;6.33;70.59;99391.84;4820325;29;20061;-69
2021/12/05 12:49:15;;;;;;;2.53;1.10;;;;;;;6.13;71.14;99392.91;4819810;29;19923;-69
2021/12/05 12:52:20;;;;;;;5.22;1.15;;;;;;;6.10;72.35;99383.53;4823231;29;20058;-69
2021/12/05 12:55:27;;;;;;;3.90;1.35;;;;;;;5.75;72.36;99385.31;4823627;29;20049;-69
2021/12/05 12:58:43;;;;;;;1.88;0.45;;;;;;;5.57;71.42;99392.25;4823766;29;20416;-69
2021/12/05 13:11:50;;;;;;;2.05;0.55;;;;;;;5.42;74.34;99398.16;4823592;29;20053;-69
2021/12/05 13:15:07;;;;;;;6.40;0.57;;;;;;;5.19;72.06;99399.28;4823342;29;20062;-69
2021/12/05 13:18:10;;;;;;;2.22;0.65;;;;;;;5.19;72.21;99401.88;4823502;29;20152;-69
2021/12/05 13:21:25;;;;;;;2.10;0.50;;;;;;;5.19;72.38;99402.72;4823489;29;20041;-69
2021/12/05 13:24:34;;;;;;;2.05;0.80;;;;;;;5.37;73.09;99398.41;4823415;29;20089;-69
2021/12/05 13:27:37;;;;;;;2.30;0.57;;;;;;;5.49;74.56;99403.00;4823635;29;20654;-68
2021/12/05 13:30:43;;;;;;;;;;;;;;;5.64;74.39;99400.53;4823595;29;20078;-69
2021/12/05 13:33:46;;;;;;;6.03;0.95;;;;;;;5.89;76.54;99416.56;4823237;29;19927;-69
2021/12/05 13:40:47;;;;;;;2.30;1.00;;;;;;;5.75;71.37;99419.03;4823039;29;19924;-68
2021/12/05 13:43:55;;;;;;;2.95;0.80;;;;;;;5.97;72.97;99424.84;4822969;29;20082;-68
2021/12/05 13:47:15;;;;;;;3.30;0.75;;;;;;;6.15;72.61;99430.81;4822955;29;20062;-68
2021/12/05 13:50:28;;;;;;;4.13;2.22;;;;;;;6.13;71.75;99424.88;4822845;29;20078;-68
2021/12/05 13:53:47;;;;;;;3.72;1.00;;;;;;;6.10;72.92;99435.44;4823008;29;20053;-69
2021/12/05 13:57:07;;;;;;;2.83;0.68;;;;;;;6.10;74.17;99430.22;4822857;29;20060;-69
2021/12/05 14:01:08;;;;;;;4.68;0.85;;;;;;;5.89;76.09;99429.53;4822908;29;20052;-68
2021/12/05 14:04:23;;;;;;;2.67;0.98;;;;;;;5.83;70.98;99438.44;4731055;30;20133;-68
2021/12/05 14:07:28;;;;;;;3.20;1.33;;;;;;;5.90;70.78;99445.94;4735325;29;20063;-68
2021/12/05 14:10:45;;;;;;;4.30;0.80;;;;;;;5.77;71.69;99443.94;4811517;29;20057;-69
2021/12/05 14:13:50;;;;;;;2.70;0.80;;;;;;;5.90;70.71;99443.34;4811299;29;20094;-69
2021/12/05 14:16:56;;;;;;;2.75;1.02;;;;;;;5.79;70.54;99451.66;4811649;29;20126;-68
2021/12/05 14:20:11;;;;;;;2.08;0.82;;;;;;;5.74;71.56;99462.28;4811270;29;20137;-69
2021/12/05 14:23:20;;;;;;;3.67;0.98;;;;;;;5.84;73.37;99470.44;4822761;29;20071;-69
2021/12/05 14:26:26;;;;;;;2.47;1.02;;;;;;;5.93;74.86;99471.75;4826045;29;20050;-69
2021/12/05 14:29:33;;;;;;;2.95;0.90;;;;;;;5.78;72.56;99469.00;4825990;29;20416;-69
2021/12/05 14:32:39;;;;;;;3.22;0.90;;;;;;;5.65;71.37;99478.28;4825692;29;20111;-69
2021/12/05 14:35:43;;;;;;;2.80;0.95;;;;;;;5.57;71.86;99477.81;4825840;29;20195;-69
2021/12/05 14:38:47;;;;;;;7.38;3.08;;;;;;;5.54;71.79;99498.69;4826036;29;20115;-69
2021/12/05 14:41:53;;;;;;;6.90;2.67;;;;;;;5.57;72.82;99507.16;4825655;29;20420;-68
2021/12/05 14:45:03;;;;;;;5.00;1.75;;;;;;;5.36;72.54;99510.78;4825557;29;20049;-69
2021/12/05 14:48:11;;;;;;;3.63;2.20;;;;;;;5.48;72.04;99515.38;4825682;29;20053;-69
2021/12/05 14:51:14;;;;;;;3.15;1.20;;;;;;;5.41;72.32;99523.53;4825556;29;20048;-69
2021/12/05 14:54:18;;;;;;;;;;;;;;;5.26;72.53;99525.91;4826276;29;20137;-69
2021/12/05 14:57:25;;;;;;;2.38;1.00;;;;;;;5.34;72.74;99539.38;4824941;29;19928;-68
2021/12/05 15:00:33;;;;;;;1.35;0.50;;;;;;;5.32;73.90;99535.16;4825545;29;20130;-69
2021/12/05 15:03:37;;;;;;;2.78;0.88;;;;;;;5.11;74.20;99537.00;4814294;29;20561;-68
2021/12/05 15:06:44;;;;;;;2.72;1.23;;;;;;;5.23;74.73;99540.75;4825618;29;20618;-68
2021/12/05 15:09:51;;;;;;;4.40;2.15;;;;;;;5.00;74.66;99545.25;4825356;29;20159;-68
2021/12/05 15:12:55;;;;;;;2.97;1.35;;;;;;;5.18;74.73;99529.78;4825324;29;20158;-68
2021/12/05 15:16:01;;;;;;;3.72;1.80;;;;;;;5.28;74.46;99534.47;4824667;29;20413;-69
2021/12/05 15:19:13;;;;;;;3.63;0.70;;;;;;;5.20;75.95;99548.69;4822182;29;20412;-68
2021/12/05 15:22:23;;;;;;;3.13;0.57;;;;;;;5.05;78.21;99558.00;4825194;29;20068;-68
2021/12/05 15:25:30;;;;;;;3.15;0.70;;;;;;;4.96;79.11;99554.06;4806830;29;20081;-69
2021/12/05 15:28:35;;;;;;;3.47;1.00;;;;;;;4.99;79.72;99566.06;4826992;29;20099;-68
2021/12/05 15:31:41;;;;;;;2.50;0.63;;;;;;;4.95;79.54;99573.13;4843051;29;20101;-68
2021/12/05 15:34:48;;;;;;;2.78;1.00;;;;;;;4.74;81.07;99580.06;4840670;29;20053;-68
2021/12/05 15:37:56;;;;;;;3.13;0.80;;;;;;;4.80;81.21;99589.34;4822713;29;20065;-68
2021/12/05 15:41:04;;;;;;;2.85;0.93;;;;;;;4.92;80.89;99598.31;4820203;29;20045;-69
2021/12/05 15:49:45;;;;;;;1.95;0.65;;;;;;;4.86;80.14;99604.59;4764381;29;20051;-68
2021/12/05 15:53:05;;;;;;;4.85;1.05;;;;;;;4.72;80.35;99615.53;4820189;29;20052;-68
2021/12/05 15:56:14;;;;;;;5.43;0.63;;;;;;;4.62;80.74;99616.84;4819632;29;20118;-69
2021/12/05 15:59:18;;;;;;;2.53;0.98;;;;;;;4.70;80.33;99619.97;4820026;29;20126;-69
2021/12/05 16:02:22;;;;;;;5.10;1.92;;;;;;;4.77;80.14;99621.38;4819460;29;20041;-69
2021/12/05 16:05:26;;;;;;;3.13;0.93;;;;;;;4.75;80.45;99630.94;4820092;29;20457;-68
2021/12/05 16:08:32;;;;;;;3.50;0.90;;;;;;;4.62;80.24;99633.22;4821557;29;20053;-68
2021/12/05 16:11:35;;;;;;;3.17;1.00;;;;;;;4.51;80.63;99632.84;4820394;29;20079;-68
2021/12/05 16:14:42;;;;;;;3.22;0.95;;;;;;;4.57;80.31;99639.53;4816379;29;20695;-68
2021/12/05 16:18:01;;;;;;;12.73;7.13;;;;;;;4.71;80.72;99639.75;4815734;29;20060;-68
2021/12/05 16:21:15;;;;;;;13.05;6.35;;;;;;;4.58;80.88;99638.59;4819926;29;20531;-68
2021/12/05 16:24:23;;;;;;;6.32;2.28;;;;;;;4.52;81.05;99644.03;4819510;29;20053;-69
2021/12/05 16:27:26;;;;;;;4.93;2.28;;;;;;;4.67;81.14;99651.16;4819428;29;20423;-69
2021/12/05 16:30:33;;;;;;;4.60;1.33;;;;;;;4.60;81.52;99648.00;4825722;29;20115;-68
2021/12/05 16:33:37;;;;;;;5.22;2.75;;;;;;;4.68;80.97;99652.84;4820481;29;20049;-68
2021/12/05 16:36:52;;;;;;;8.88;5.15;;;;;;;4.71;80.56;99652.72;4816115;29;20515;-68
2021/12/05 16:39:55;;;;;;;9.93;4.35;;;;;;;4.61;80.70;99659.19;4820211;29;20041;-68
2021/12/05 16:43:08;;;;;;;8.88;2.28;;;;;;;4.40;81.62;99664.34;4822421;29;20065;-68
2021/12/05 16:46:16;;;;;;;5.22;1.30;;;;;;;4.51;81.67;99665.66;3821047;29;10001400;-68
2021/12/05 16:49:23;;;;;;;12.45;6.53;;;;;;;4.50;81.56;99674.31;4820141;29;20107;-69
2021/12/05 16:52:34;;;;;;;5.90;3.13;;;;;;;4.57;81.49;99671.41;4819986;29;20416;-69
2021/12/05 16:55:41;;;;;;;4.28;2.33;;;;;;;4.35;81.91;99679.22;4820003;29;20056;-68
2021/12/05 16:58:45;;;;;;;7.50;3.30;;;;;;;4.50;81.96;99675.19;4820132;29;20053;-68
2021/12/05 17:02:06;;;;;;;9.00;6.43;;;;;;;4.39;81.94;99667.81;4819879;29;20057;-68
2021/12/05 17:05:24;;;;;;;6.28;4.32;;;;;;;4.52;81.48;99678.53;4820343;29;20057;-68
2021/12/05 17:08:28;;;;;;;5.25;1.90;;;;;;;4.46;81.91;99690.88;4819756;29;20049;-68
2021/12/05 17:11:37;;;;;;;6.65;4.43;;;;;;;4.53;81.69;99689.72;4801668;29;20653;-68
2021/12/05 17:14:40;;;;;;;4.65;1.98;;;;;;;4.37;82.07;99685.19;4801757;29;20471;-68
2021/12/05 17:17:46;;;;;;;6.32;1.50;;;;;;;4.22;83.03;99696.13;4801431;29;20123;-68
2021/12/05 17:20:54;;;;;;;6.90;1.52;;;;;;;4.19;83.20;99691.94;4801348;29;20091;-68
2021/12/05 17:24:06;;;;;;;3.83;1.60;;;;;;;4.33;82.91;99698.28;4802270;29;20553;-68
2021/12/05 17:27:09;;;;;;;5.65;1.80;;;;;;;4.30;82.40;99696.66;4790631;29;20164;-68
2021/12/05 17:30:12;;;;;;;2.97;1.17;;;;;;;4.14;83.47;99704.19;4486805;29;9999691;-68
2021/12/05 17:33:25;;;;;;;2.08;0.82;;;;;;;4.29;82.93;99715.69;4802096;29;20073;-68
2021/12/05 17:36:40;;;;;;;2.67;1.02;;;;;;;4.39;82.27;99723.94;4800971;29;20092;-69
2021/12/05 17:39:47;;;;;;;3.78;0.80;;;;;;;4.41;82.34;99722.97;4803650;29;20512;-69
2021/12/05 17:42:50;;;;;;;3.47;0.80;;;;;;;4.31;82.73;99731.19;4804892;29;20058;-69
2021/12/05 17:45:53;;;;;;;;;;;;;;;4.23;83.29;99731.44;4805367;29;20528;-69
2021/12/05 17:48:59;;;;;;;2.38;1.02;;;;;;;4.29;82.82;99725.19;4804944;29;20304;-69
2021/12/05 17:52:05;;;;;;;10.00;5.35;;;;;;;4.28;81.91;99737.31;4804218;29;20057;-69
2021/12/05 17:55:24;;;;;;;11.45;6.60;;;;;;;4.33;81.93;99737.94;4804214;29;20057;-69
2021/12/05 17:59:04;;;;;;;5.30;1.75;;;;;;;4.16;82.70;99754.13;4804494;29;20054;-69
2021/12/05 18:05:35;;;;;;;7.03;2.97;;;;;;;4.26;82.86;99753.78;4808092;29;20054;-69
2021/12/05 18:08:40;;;;;;;7.72;4.32;;;;;;;4.33;82.15;99755.22;4807766;29;20076;-69
2021/12/05 18:11:43;;;;;;;7.05;3.60;;;;;;;4.29;82.16;99766.63;4808534;29;20131;-69
2021/12/05 18:14:53;;;;;;;4.85;2.30;;;;;;;4.23;82.44;99766.84;4808247;29;20056;-69
2021/12/05 18:17:58;;;;;;;4.95;1.80;;;;;;;4.04;83.35;99770.13;4808192;29;20061;-69
2021/12/05 18:21:04;;;;;;;4.03;1.30;;;;;;;4.04;83.53;99777.03;4807952;29;20053;-69
2021/12/05 18:24:13;;;;;;;5.22;1.10;;;;;;;3.99;83.26;99771.19;4808021;29;20111;-69
2021/12/05 18:27:17;;;;;;;2.50;1.00;;;;;;;4.04;83.59;99784.81;4807972;29;20420;-69
2021/12/05 18:30:22;;;;;;;4.90;0.90;;;;;;;4.04;83.11;99796.00;4807828;29;20099;-69
2021/12/05 18:33:29;;;;;;;2.40;0.75;;;;;;;4.11;83.17;99788.84;4808055;29;20086;-69
2021/12/05 18:36:35;;;;;;;2.92;1.38;;;;;;;4.08;83.03;99789.78;4812245;29;20053;-69
2021/12/05 18:39:48;;;;;;;5.93;1.45;;;;;;;4.06;82.81;99790.78;4821144;29;20121;-70
2021/12/05 18:42:52;;;;;;;4.15;2.05;;;;;;;4.03;83.03;99803.81;4820320;29;20044;-69
2021/12/05 18:45:56;;;;;;;;;;;;;;;4.03;82.91;99804.66;4821371;29;20121;-70
2021/12/05 18:48:59;;;;;;;2.00;0.88;;;;;;;4.05;83.05;99808.03;4821172;29;19923;-71
2021/12/05 18:52:03;;;;;;;;;;;;;;;4.13;83.15;99810.34;4822002;29;20069;-68
2021/12/05 18:55:10;;;;;;;3.63;1.10;;;;;;;3.93;83.37;99811.91;4821595;29;19927;-68
2021/12/05 18:58:13;;;;;;;5.32;1.10;;;;;;;3.99;83.18;99816.03;4803572;29;20065;-69
2021/12/05 19:04:47;;;;;;;10.27;5.70;;;;;;;3.95;83.36;99825.63;4802736;29;19970;-68
2021/12/05 19:08:06;;;;;;;15.63;8.50;;;;;;;4.02;82.44;99827.97;4803326;29;20106;-68
2021/12/05 19:14:38;;;;;;;6.72;2.17;;;;;;;4.01;83.25;99831.47;4815303;29;20110;-68
2021/12/05 19:17:42;;;;;;;11.52;6.47;;;;;;;4.07;82.92;99826.09;4807066;29;20085;-68
2021/12/05 19:20:45;;;;;;;;;;;;;;;4.04;83.03;99823.59;4807552;29;20045;-68
2021/12/05 19:23:48;;;;;;;12.60;7.15;;;;;;;4.08;82.73;99832.94;4807090;29;19939;-68
2021/12/05 19:26:53;;;;;;;9.52;5.85;;;;;;;4.13;82.41;99836.22;4807013;29;20057;-68
2021/12/05 19:29:58;;;;;;;12.25;7.10;;;;;;;4.00;82.80;99845.31;4807015;29;20069;-68
2021/12/05 19:33:04;;;;;;;10.00;5.00;;;;;;;3.86;83.01;99844.06;4806620;29;20090;-68
2021/12/05 19:36:15;;;;;;;6.35;2.75;;;;;;;3.84;83.58;99852.78;4806787;29;20057;-68
2021/12/05 19:39:19;;;;;;;5.63;2.55;;;;;;;3.87;83.22;99852.69;4806481;29;20123;-68
2021/12/05 19:42:24;;;;;;;2.80;1.40;;;;;;;3.83;83.16;99858.84;4806792;29;20049;-68
2021/12/05 19:45:29;;;;;;;3.60;1.20;;;;;;;3.89;83.36;99856.91;4806579;29;20045;-68
2021/12/05 19:48:32;;;;;;;5.75;3.28;;;;;;;3.92;82.77;99861.09;4806008;29;20582;-68
2021/12/05 19:51:36;;;;;;;8.82;2.40;;;;;;;3.95;82.97;99861.00;4806015;29;20058;-68
2021/12/05 19:54:41;;;;;;;4.07;1.65;;;;;;;3.72;83.75;99870.41;4822933;29;20072;-68
2021/12/05 19:57:44;;;;;;;3.08;1.30;;;;;;;3.71;84.06;99870.47;4842667;29;20420;-68
2021/12/05 20:00:47;;;;;;;10.93;6.00;;;;;;;3.83;83.52;99877.81;4842675;29;20086;-68
2021/12/05 20:03:51;;;;;;;5.25;2.95;;;;;;;3.80;83.43;99882.22;4842805;29;20091;-68
2021/12/05 20:06:54;;;;;;;7.15;3.50;;;;;;;3.60;84.47;99888.06;4842570;29;20097;-68
2021/12/05 20:09:58;;;;;;;4.95;1.92;;;;;;;3.61;84.47;99894.94;4842934;29;20083;-68
2021/12/05 20:13:02;;;;;;;2.88;1.35;;;;;;;3.66;84.01;99898.22;4842617;29;20115;-68
2021/12/05 20:16:07;;;;;;;3.72;1.27;;;;;;;3.61;84.52;99894.94;4842432;29;20048;-68
2021/12/05 20:19:11;;;;;;;3.28;1.50;;;;;;;3.63;84.47;99899.16;4840749;29;20102;-68
2021/12/05 20:22:14;;;;;;;4.05;1.45;;;;;;;3.76;84.27;99898.75;4842309;29;20444;-69
2021/12/05 20:25:20;;;;;;;4.57;1.52;;;;;;;3.80;nan;99906.34;4842624;29;20539;-68
2021/12/05 20:28:25;;;;;;;3.08;1.50;;;;;;;3.63;84.28;99913.81;4842536;29;20128;-68
2021/12/05 20:31:28;;;;;;;2.97;1.42;;;;;;;3.63;84.31;99904.31;4842150;29;20098;-68
2021/12/05 20:34:32;;;;;;;3.00;1.20;;;;;;;3.78;83.91;99913.31;4842155;29;20124;-68
2021/12/05 20:37:36;;;;;;;6.93;1.52;;;;;;;3.85;83.52;99919.13;4842107;29;20052;-68
2021/12/05 20:40:43;;;;;;;4.22;2.17;;;;;;;3.86;83.52;99926.84;4842306;29;20480;-68
2021/12/05 20:43:47;;;;;;;2.78;0.98;;;;;;;3.87;83.04;99928.50;4840568;29;20044;-68